Aviation Digital Data Service (ADDS)

Output produced by METARs form (0735 UTC 01 December 2022)
found at http://aviationweather.gov/metar/data/
 
METAR text: KPWT 010731Z AUTO 00000KT 3/4SM BR VV012 M01/M01 A2956 RMK AO2 VIS 1/2V3 FZRANO
Conditions at: KPWT (BREMERTON NTNL , WA, US) observed 0731 UTC 01 December 2022
Temperature: -1.0°C (30°F)
Dewpoint: -1.0°C (30°F) [RH = 100%]
Pressure (altimeter): 29.56 inches Hg (1001.1 mb)
Winds: calm
Visibility: 0.75 miles (1.21 km)
Ceiling: indefinite ceiling with vertical visibility of 1200 feet AGL
Clouds: obscured sky
Weather: BR  (mist)

METAR text: KPWT 010726Z AUTO 00000KT 1 1/2SM BR FEW007 BKN012 M01/M01 A2956 RMK AO2 FZRANO
Conditions at: KPWT (BREMERTON NTNL , WA, US) observed 0726 UTC 01 December 2022
Temperature: -1.0°C (30°F)
Dewpoint: -1.0°C (30°F) [RH = 100%]
Pressure (altimeter): 29.56 inches Hg (1001.1 mb)
Winds: calm
Visibility: 1.50 miles (2.41 km)
Ceiling: 1200 feet AGL
Clouds: few clouds at 700 feet AGL
broken clouds at 1200 feet AGL
Weather: BR  (mist)

METAR text: KPWT 010706Z AUTO 00000KT 9SM FEW007 BKN012 M01/M01 A2956 RMK AO2 FZRANO
Conditions at: KPWT (BREMERTON NTNL , WA, US) observed 0706 UTC 01 December 2022
Temperature: -1.0°C (30°F)
Dewpoint: -1.0°C (30°F) [RH = 100%]
Pressure (altimeter): 29.56 inches Hg (1001.1 mb)
Winds: calm
Visibility: 9 miles (14 km)
Ceiling: 1200 feet AGL
Clouds: few clouds at 700 feet AGL
broken clouds at 1200 feet AGL
Weather: automated observation with no human augmentation;
there may or may not be significant weather present at this time

METAR text: KPWT 010656Z AUTO 00000KT 10SM BKN010 M01/M01 A2955 RMK AO2 SLP015 T10061006 FZRANO
Conditions at: KPWT (BREMERTON NTNL , WA, US) observed 0656 UTC 01 December 2022
Temperature: -0.6°C (31°F)
Dewpoint: -0.6°C (31°F) [RH = 100%]
Pressure (altimeter): 29.55 inches Hg (1000.8 mb)
[Sea-level pressure: 1001.5 mb]
Winds: calm
Visibility: 10 or more miles (16+ km)
Ceiling: 1000 feet AGL
Clouds: broken clouds at 1000 feet AGL
Weather: automated observation with no human augmentation;
there may or may not be significant weather present at this time

Forecast for: KPWT (BREMERTON NTNL , WA, US)
Text: KPWT 010633Z 0107/0206 VRB03KT 6SM BR SCT003 OVC008
Forecast period: 0700 to 1000 UTC 01 December 2022
Forecast type: FROM: standard forecast or significant change
Winds: variable direction winds at 3 MPH (3 knots; 1.5 m/s)
Visibility: 6 miles (10 km)
Ceiling: 800 feet AGL
Clouds: scattered clouds at 300 feet AGL
overcast cloud deck at 800 feet AGL
Weather: BR  (mist)
Text: FM011000 03006KT 1SM -SHSN SCT003 BKN006 OVC012
Forecast period: 1000 to 1600 UTC 01 December 2022
Forecast type: FROM: standard forecast or significant change
Winds: from the NNE (30 degrees) at 7 MPH (6 knots; 3.1 m/s)
Visibility: 1.00 miles (1.61 km)
Ceiling: 600 feet AGL
Clouds: scattered clouds at 300 feet AGL
broken clouds at 600 feet AGL
overcast cloud deck at 1200 feet AGL
Weather: -SHSN  (light snow showers)
Text: FM011600 03006KT 4SM BR SCT006 BKN012 OVC020
Forecast period: 1600 to 2100 UTC 01 December 2022
Forecast type: FROM: standard forecast or significant change
Winds: from the NNE (30 degrees) at 7 MPH (6 knots; 3.1 m/s)
Visibility: 4 miles (6 km)
Ceiling: 1200 feet AGL
Clouds: scattered clouds at 600 feet AGL
broken clouds at 1200 feet AGL
overcast cloud deck at 2000 feet AGL
Weather: BR  (mist)
Text: FM012100 03006KT P6SM SCT015 OVC025
Forecast period: 2100 UTC 01 December 2022 to 0000 UTC 02 December 2022
Forecast type: FROM: standard forecast or significant change
Winds: from the NNE (30 degrees) at 7 MPH (6 knots; 3.1 m/s)
Visibility: 6 or more miles (10+ km)
Ceiling: 2500 feet AGL
Clouds: scattered clouds at 1500 feet AGL
overcast cloud deck at 2500 feet AGL
Weather: no significant weather forecast for this period
Text: FM020000 03006KT P6SM SCT050 BKN100
Forecast period: 0000 to 0600 UTC 02 December 2022
Forecast type: FROM: standard forecast or significant change
Winds: from the NNE (30 degrees) at 7 MPH (6 knots; 3.1 m/s)
Visibility: 6 or more miles (10+ km)
Ceiling: 10000 feet AGL
Clouds: scattered clouds at 5000 feet AGL
broken clouds at 10000 feet AGL
Weather: no significant weather forecast for this period